Time;durP1;ratioP1;P1;durP2;ratioP2;P2;SDS_P1;SDS_P2;PMS_P1;PMS_P2;Temp;Humidity;BMP_temperature;BMP_pressure;BME280_temperature;BME280_humidity;BME280_pressure;Samples;Min_cycle;Max_cycle;Signal;HPM_P1;HPM_P2
2023/10/13 00:01:18;;;;;;;15.52;8.20;;;;;;;18.70;100.00;101236.56;5252584;28;20055;-73
2023/10/13 00:03:49;;;;;;;22.05;7.88;;;;;;;18.67;100.00;101240.50;5246628;28;20043;-73
2023/10/13 00:06:20;;;;;;;20.35;8.27;;;;;;;18.71;100.00;101230.09;5249148;28;20027;-73
2023/10/13 00:08:50;;;;;;;15.55;8.45;;;;;;;18.72;100.00;101231.75;5249817;28;20032;-73
2023/10/13 00:11:21;;;;;;;19.58;8.57;;;;;;;18.69;100.00;101230.31;5247380;28;20443;-73
2023/10/13 00:13:54;;;;;;;18.45;8.32;;;;;;;18.63;100.00;101223.81;5250011;28;20028;-73
2023/10/13 00:16:27;;;;;;;17.35;8.20;;;;;;;18.61;100.00;101228.59;5252971;28;20024;-73
2023/10/13 00:18:57;;;;;;;24.17;8.88;;;;;;;18.62;100.00;101218.56;5249456;28;20032;-73
2023/10/13 00:21:35;;;;;;;20.30;8.73;;;;;;;18.55;100.00;101217.75;5252196;28;20484;-73
2023/10/13 00:24:11;;;;;;;21.05;9.52;;;;;;;18.60;100.00;101217.94;5249291;28;20058;-73
2023/10/13 00:26:43;;;;;;;21.20;9.00;;;;;;;18.58;100.00;101209.19;5248772;28;20081;-72
2023/10/13 00:31:48;;;;;;;22.50;9.68;;;;;;;18.62;100.00;101215.84;5246670;28;20054;-73
2023/10/13 00:34:20;;;;;;;22.75;10.23;;;;;;;18.57;100.00;101207.47;5248090;28;20301;-72
2023/10/13 00:39:44;;;;;;;22.88;9.88;;;;;;;18.60;100.00;101196.19;5246227;28;20031;-72
2023/10/13 00:42:25;;;;;;;18.55;9.57;;;;;;;18.55;100.00;101188.69;5245705;28;20161;-72
2023/10/13 00:44:56;;;;;;;17.48;9.65;;;;;;;18.64;100.00;101192.03;5248335;28;20031;-73
2023/10/13 00:47:48;;;;;;;23.55;10.52;;;;;;;18.62;100.00;101189.53;5251020;28;20024;-72
2023/10/13 00:50:19;;;;;;;23.27;10.38;;;;;;;18.54;100.00;101180.75;5252076;28;20020;-72
2023/10/13 00:52:50;;;;;;;23.05;10.95;;;;;;;18.53;100.00;101181.81;5247535;28;20046;-72
2023/10/13 00:55:22;;;;;;;29.45;11.38;;;;;;;18.50;100.00;101172.19;5252106;28;20019;-73
2023/10/13 00:57:54;;;;;;;28.95;12.30;;;;;;;18.43;100.00;101178.69;5247055;28;20112;-72
2023/10/13 01:00:28;;;;;;;21.75;11.35;;;;;;;18.43;100.00;101171.38;5250015;28;20263;-72
2023/10/13 01:03:06;;;;;;;26.92;12.02;;;;;;;18.44;100.00;101166.75;5251889;28;20402;-72
2023/10/13 01:05:39;;;;;;;23.02;12.18;;;;;;;18.45;100.00;101150.25;5248380;28;20020;-72
2023/10/13 01:08:10;;;;;;;26.98;12.68;;;;;;;18.41;100.00;101156.31;5253220;28;20409;-72
2023/10/13 01:10:41;;;;;;;26.35;13.02;;;;;;;18.42;100.00;101153.38;5238193;28;20025;-73
2023/10/13 01:13:12;;;;;;;28.45;13.77;;;;;;;18.41;100.00;101153.59;5248665;28;20024;-72
2023/10/13 01:15:42;;;;;;;40.67;14.80;;;;;;;18.43;100.00;101140.66;5249856;28;20466;-73
2023/10/13 01:18:16;;;;;;;30.17;14.23;;;;;;;18.48;100.00;101130.81;5252873;28;20028;-73
2023/10/13 01:20:52;;;;;;;34.53;16.05;;;;;;;18.45;100.00;101133.13;5254465;28;20027;-73
2023/10/13 01:23:25;;;;;;;29.02;15.63;;;;;;;18.45;100.00;101131.22;5252096;28;20073;-73
2023/10/13 01:25:56;;;;;;;34.65;15.80;;;;;;;18.42;100.00;101131.63;5249158;28;20019;-73
2023/10/13 01:28:26;;;;;;;38.13;16.95;;;;;;;18.48;100.00;101130.00;5245825;28;20381;-72
2023/10/13 01:30:57;;;;;;;39.33;17.45;;;;;;;18.42;100.00;101119.94;5244588;28;20115;-73
2023/10/13 01:33:28;;;;;;;37.17;19.25;;;;;;;18.46;100.00;101119.31;5245475;28;20630;-72
2023/10/13 01:36:06;;;;;;;40.05;19.27;;;;;;;18.48;100.00;101117.22;5245500;28;20052;-72
2023/10/13 01:38:38;;;;;;;54.55;21.00;;;;;;;18.45;100.00;101108.66;5240900;28;20028;-72
2023/10/13 01:41:08;;;;;;;44.22;21.63;;;;;;;18.55;100.00;101111.78;5245273;28;20025;-72
2023/10/13 01:43:39;;;;;;;52.75;23.83;;;;;;;18.55;100.00;101103.63;5245462;28;20408;-72
2023/10/13 01:46:13;;;;;;;58.95;25.38;;;;;;;18.59;100.00;101096.72;5245557;28;20529;-72
2023/10/13 01:48:46;;;;;;;62.20;25.52;;;;;;;18.57;100.00;101087.94;5243290;28;20446;-73
2023/10/13 01:51:16;;;;;;;61.88;28.25;;;;;;;18.60;100.00;101082.09;5245063;28;20392;-72
2023/10/13 01:54:11;;;;;;;67.40;27.38;;;;;;;18.55;100.00;101081.91;5248251;28;20477;-72
2023/10/13 01:56:46;;;;;;;64.15;27.73;;;;;;;18.61;100.00;101075.59;5245493;28;20024;-73
2023/10/13 01:59:17;;;;;;;62.00;27.38;;;;;;;18.53;100.00;101065.81;5244677;28;20043;-73
2023/10/13 02:01:47;;;;;;;64.38;28.13;;;;;;;18.58;100.00;101057.84;5249321;28;20105;-72
2023/10/13 02:04:21;;;;;;;60.78;29.25;;;;;;;18.60;100.00;101057.63;5245613;28;20111;-72
2023/10/13 02:06:52;;;;;;;71.25;30.83;;;;;;;18.65;100.00;101055.09;5244955;28;20028;-72
2023/10/13 02:09:29;;;;;;;65.43;28.95;;;;;;;18.61;100.00;101051.16;5248454;28;20027;-72
2023/10/13 02:12:00;;;;;;;71.15;28.60;;;;;;;18.67;100.00;101055.72;5244995;28;20152;-72
2023/10/13 02:14:33;;;;;;;76.65;29.58;;;;;;;18.69;100.00;101048.22;5245424;28;20025;-72
2023/10/13 02:17:13;;;;;;;67.82;28.92;;;;;;;18.70;100.00;101039.03;5251506;28;20061;-73
2023/10/13 02:19:45;;;;;;;60.17;27.80;;;;;;;18.69;100.00;101039.25;5242448;28;20386;-72
2023/10/13 02:22:27;;;;;;;65.97;28.80;;;;;;;18.64;100.00;101040.69;5244919;28;20029;-72
2023/10/13 02:25:01;;;;;;;70.15;30.35;;;;;;;18.62;100.00;101022.91;5252417;28;20085;-73
2023/10/13 02:27:43;;;;;;;62.80;27.17;;;;;;;18.60;100.00;101016.88;5247463;28;20032;-73
2023/10/13 02:30:14;;;;;;;62.22;27.58;;;;;;;18.61;100.00;101008.50;5246647;28;20266;-72
2023/10/13 02:32:45;;;;;;;61.58;27.30;;;;;;;18.61;100.00;101005.78;5245270;28;20086;-73
2023/10/13 02:35:17;;;;;;;57.13;25.95;;;;;;;18.59;100.00;101005.19;5248390;28;20108;-73
2023/10/13 02:37:54;;;;;;;60.95;27.58;;;;;;;18.63;100.00;101005.59;5245308;28;20077;-73
2023/10/13 02:40:25;;;;;;;54.83;25.55;;;;;;;18.59;100.00;100986.16;5247839;28;20016;-72
2023/10/13 02:42:55;;;;;;;64.13;26.83;;;;;;;18.57;100.00;100990.97;5245914;28;20493;-72
2023/10/13 02:45:26;;;;;;;55.40;25.50;;;;;;;18.60;100.00;100993.25;5247698;28;20035;-72
2023/10/13 02:48:12;;;;;;;62.90;25.80;;;;;;;18.59;100.00;100982.63;5248177;28;20030;-72
2023/10/13 02:50:45;;;;;;;54.60;24.90;;;;;;;18.63;100.00;100992.00;5241117;28;20090;-72
2023/10/13 02:53:18;;;;;;;60.90;24.75;;;;;;;18.59;100.00;100988.88;5248270;28;20106;-73
2023/10/13 02:55:51;;;;;;;58.58;24.65;;;;;;;18.57;100.00;100984.69;5248754;28;20386;-73
2023/10/13 02:58:22;;;;;;;58.42;25.02;;;;;;;18.55;100.00;100974.06;5245399;28;20029;-73
2023/10/13 03:00:53;;;;;;;56.95;25.30;;;;;;;18.52;100.00;100966.31;5245447;28;20085;-72
2023/10/13 03:03:23;;;;;;;59.38;23.77;;;;;;;18.63;100.00;100968.38;5244779;28;20137;-73
2023/10/13 03:05:54;;;;;;;51.17;23.38;;;;;;;18.61;100.00;100967.75;5245530;28;20021;-73
2023/10/13 03:08:27;;;;;;;59.90;23.98;;;;;;;18.62;100.00;100958.56;5247475;28;20024;-73
2023/10/13 03:10:57;;;;;;;51.13;22.58;;;;;;;18.52;100.00;100952.75;5245827;28;20028;-72
2023/10/13 03:13:28;;;;;;;52.03;23.70;;;;;;;18.58;100.00;100961.94;5245151;28;20078;-72
2023/10/13 03:15:59;;;;;;;56.05;22.92;;;;;;;18.53;100.00;100949.00;5246178;28;20023;-72
2023/10/13 03:18:33;;;;;;;52.55;21.63;;;;;;;18.54;100.00;100950.66;5245213;28;20028;-72
2023/10/13 03:21:04;;;;;;;53.83;23.33;;;;;;;18.61;100.00;100932.44;5244617;28;20389;-72
2023/10/13 03:23:45;;;;;;;51.67;21.85;;;;;;;18.56;100.00;100931.41;5248561;28;20021;-72
2023/10/13 03:26:19;;;;;;;56.67;22.85;;;;;;;18.58;100.00;100926.63;5246421;28;20031;-72
2023/10/13 03:28:52;;;;;;;57.63;24.30;;;;;;;18.66;100.00;100918.19;5244731;28;20028;-72
2023/10/13 03:31:27;;;;;;;57.47;22.10;;;;;;;18.77;100.00;100930.28;5242239;28;20454;-72
2023/10/13 03:34:00;;;;;;;56.65;22.10;;;;;;;18.77;100.00;100927.56;5248686;28;20052;-71
2023/10/13 03:36:57;;;;;;;54.17;23.05;;;;;;;18.75;100.00;100918.81;5243619;28;20533;-73
2023/10/13 03:39:29;;;;;;;48.20;21.23;;;;;;;18.79;100.00;100925.47;5245337;28;20555;-72
2023/10/13 03:41:59;;;;;;;52.80;22.35;;;;;;;18.72;100.00;100927.38;5247484;28;20039;-72
2023/10/13 03:44:30;;;;;;;53.33;21.33;;;;;;;18.72;100.00;100927.38;5245217;28;20029;-73
2023/10/13 03:47:17;;;;;;;47.10;20.35;;;;;;;18.74;100.00;100919.88;5248580;28;20036;-73
2023/10/13 03:49:51;;;;;;;51.00;20.27;;;;;;;18.81;100.00;100921.47;5241175;28;20400;-72
2023/10/13 03:52:22;;;;;;;53.70;21.15;;;;;;;18.84;100.00;100920.22;5242187;28;20028;-73
2023/10/13 03:54:53;;;;;;;47.65;20.60;;;;;;;18.80;100.00;100919.81;5245988;28;20469;-73
2023/10/13 03:57:27;;;;;;;48.00;21.10;;;;;;;18.79;100.00;100914.59;5244475;28;20042;-72
2023/10/13 03:59:57;;;;;;;55.78;20.25;;;;;;;18.87;100.00;100907.00;5244926;28;20032;-73
2023/10/13 04:02:28;;;;;;;57.60;20.63;;;;;;;18.84;100.00;100907.47;5244339;28;20485;-73
2023/10/13 04:05:07;;;;;;;50.72;19.88;;;;;;;18.84;100.00;100902.03;5247276;28;20056;-73
2023/10/13 04:07:39;;;;;;;52.90;18.55;;;;;;;18.87;100.00;100904.28;5247800;28;20024;-73
2023/10/13 04:27:15;;;;;;;35.78;15.75;;;;;;;18.93;100.00;100916.19;5246817;28;20106;-72
2023/10/13 04:30:10;;;;;;;46.83;16.30;;;;;;;18.93;100.00;100908.03;5244614;28;20028;-73
2023/10/13 04:32:47;;;;;;;38.42;16.08;;;;;;;18.93;100.00;100913.47;5243760;28;20367;-73
2023/10/13 04:35:18;;;;;;;42.85;16.55;;;;;;;18.96;100.00;100907.56;5246572;28;20035;-73
2023/10/13 04:37:50;;;;;;;35.33;15.68;;;;;;;18.97;100.00;100898.38;5244102;28;20032;-73
2023/10/13 04:40:28;;;;;;;38.35;15.57;;;;;;;18.98;100.00;100875.59;5242760;28;20029;-73
2023/10/13 04:43:04;;;;;;;41.13;15.30;;;;;;;19.00;100.00;100867.19;5246172;28;20183;-73
2023/10/13 04:48:27;;;;;;;33.08;14.82;;;;;;;18.96;100.00;100833.34;5245907;28;20032;-73
2023/10/13 04:54:10;;;;;;;32.25;13.23;;;;;;;19.00;100.00;100834.56;5244737;28;20034;-73
2023/10/13 04:59:18;;;;;;;32.58;13.25;;;;;;;18.99;100.00;100824.75;5248640;28;20035;-73
2023/10/13 05:02:42;;;;;;;34.25;12.63;;;;;;;18.97;100.00;100824.97;5246690;28;20021;-73
2023/10/13 05:44:47;;;;;;;34.30;11.25;;;;;;;18.89;100.00;100743.72;5246065;28;20500;-73
2023/10/13 05:50:49;;;;;;;32.25;11.57;;;;;;;18.94;100.00;100748.50;5243527;28;20028;-73
2023/10/13 06:29:45;;;;;;;30.10;11.57;;;;;;;19.03;100.00;100696.31;5245439;28;20371;-73
2023/10/13 06:32:16;;;;;;;40.22;10.90;;;;;;;19.04;100.00;100691.72;5242013;28;20033;-73
2023/10/13 06:34:49;;;;;;;33.47;11.32;;;;;;;19.11;100.00;100695.19;5245395;28;20362;-73
2023/10/13 06:37:30;;;;;;;27.80;11.07;;;;;;;19.03;100.00;100684.63;5242011;28;20040;-73
2023/10/13 06:40:06;;;;;;;29.58;9.30;;;;;;;18.92;100.00;100678.00;5242588;28;20501;-73
2023/10/13 06:42:42;;;;;;;43.63;11.13;;;;;;;18.93;100.00;100687.03;5240618;28;20035;-73
2023/10/13 06:45:12;;;;;;;31.98;9.80;;;;;;;18.93;100.00;100681.59;5240873;28;20263;-73
2023/10/13 06:47:43;;;;;;;27.58;9.52;;;;;;;19.12;100.00;100685.97;5248494;28;20036;-73
2023/10/13 06:50:16;;;;;;;32.40;9.70;;;;;;;19.24;100.00;100683.34;5244476;28;20250;-73
2023/10/13 06:52:47;;;;;;;21.63;9.02;;;;;;;19.19;100.00;100672.31;5242675;28;20027;-73
2023/10/13 06:55:23;;;;;;;27.63;9.13;;;;;;;19.26;100.00;100673.03;5244679;28;20408;-73
2023/10/13 06:57:59;;;;;;;29.73;10.32;;;;;;;19.19;100.00;100667.69;5246807;28;20028;-73
2023/10/13 07:00:34;;;;;;;25.48;9.23;;;;;;;19.25;100.00;100660.50;5246024;28;20103;-73
2023/10/13 07:03:06;;;;;;;33.88;8.32;;;;;;;19.31;100.00;100663.13;5249764;28;20576;-73
2023/10/13 07:05:38;;;;;;;29.23;9.15;;;;;;;19.37;100.00;100666.84;5247650;28;20095;-73
2023/10/13 07:08:14;;;;;;;22.35;7.55;;;;;;;19.29;100.00;100657.13;5250270;28;20074;-73
2023/10/13 07:11:08;;;;;;;19.42;8.02;;;;;;;19.45;100.00;100658.38;5243964;28;20017;-73
2023/10/13 07:13:39;;;;;;;21.83;7.82;;;;;;;19.50;100.00;100663.13;5247985;28;20445;-73
2023/10/13 07:16:12;;;;;;;23.90;7.25;;;;;;;19.66;100.00;100660.63;5249879;28;20124;-73
2023/10/13 07:18:50;;;;;;;21.58;7.35;;;;;;;19.71;100.00;100659.94;5245507;28;20020;-73
2023/10/13 07:21:32;;;;;;;25.13;8.25;;;;;;;19.72;100.00;100664.31;5248125;28;20111;-73
2023/10/13 07:24:10;;;;;;;27.30;7.82;;;;;;;19.74;100.00;100664.91;5246938;28;20028;-73
2023/10/13 07:26:47;;;;;;;20.75;6.97;;;;;;;19.81;100.00;100656.66;5247800;28;20166;-73
2023/10/13 07:29:18;;;;;;;23.90;7.07;;;;;;;20.07;100.00;100650.78;5249081;28;20170;-73
2023/10/13 07:31:49;;;;;;;20.38;6.68;;;;;;;20.17;100.00;100647.50;5246334;28;20111;-73
2023/10/13 07:34:26;;;;;;;19.27;7.22;;;;;;;20.24;100.00;100648.25;5248591;28;20062;-73
2023/10/13 07:37:07;;;;;;;15.20;6.22;;;;;;;20.24;100.00;100650.13;5250362;28;20028;-73
2023/10/13 07:39:40;;;;;;;17.73;6.55;;;;;;;20.18;100.00;100660.06;5245431;28;20032;-73
2023/10/13 07:42:19;;;;;;;17.30;6.70;;;;;;;20.24;100.00;100653.69;5249935;28;20024;-73
2023/10/13 07:44:50;;;;;;;18.42;6.38;;;;;;;20.32;100.00;100652.50;5243282;28;20406;-73
2023/10/13 07:47:24;;;;;;;20.83;6.47;;;;;;;20.30;100.00;100651.91;5248816;28;20027;-73
2023/10/13 07:49:56;;;;;;;17.48;6.53;;;;;;;20.34;100.00;100647.66;5248717;28;20025;-73
2023/10/13 07:52:36;;;;;;;23.42;6.90;;;;;;;20.41;100.00;100645.66;5248037;28;20494;-73
2023/10/13 07:55:19;;;;;;;16.73;6.28;;;;;;;20.40;100.00;100647.53;5251301;28;20370;-72
2023/10/13 07:57:54;;;;;;;18.48;6.60;;;;;;;20.53;100.00;100640.22;5243245;28;20028;-73
2023/10/13 08:08:40;;;;;;;19.75;6.63;;;;;;;20.69;100.00;100620.44;5247270;28;20024;-72
2023/10/13 08:11:24;;;;;;;22.48;7.50;;;;;;;20.72;100.00;100605.50;5247800;28;20027;-73
2023/10/13 08:14:00;;;;;;;21.58;7.10;;;;;;;21.01;100.00;100609.13;5249923;28;20108;-73
2023/10/13 08:17:07;;;;;;;23.70;6.53;;;;;;;20.98;100.00;100598.69;5247922;28;20017;-73
2023/10/13 08:19:31;;;;;;;17.35;5.57;;;;;;;21.01;100.00;100604.50;5243983;28;20055;-73
2023/10/13 08:27:34;;;;;;;23.65;6.28;;;;;;;21.50;100.00;100594.03;5249057;28;20039;-73
2023/10/13 08:32:54;;;;;;;18.40;6.40;;;;;;;21.36;100.00;100585.31;5248429;28;20048;-73
2023/10/13 08:38:04;;;;;;;22.25;5.80;;;;;;;21.26;100.00;100571.44;5255658;28;20031;-73
2023/10/13 08:43:39;;;;;;;20.52;6.80;;;;;;;21.25;100.00;100577.16;5250155;28;20161;-72
2023/10/13 08:46:24;;;;;;;23.50;6.82;;;;;;;21.21;100.00;100577.63;5252966;28;20035;-73
2023/10/13 08:49:15;;;;;;;16.15;6.50;;;;;;;21.23;100.00;100582.00;5250022;28;20036;-72
2023/10/13 08:51:49;;;;;;;23.42;6.55;;;;;;;21.41;100.00;100576.41;5245495;28;20074;-72
2023/10/13 08:54:20;;;;;;;21.83;6.90;;;;;;;21.46;100.00;100568.31;5249859;28;20023;-72
2023/10/13 08:56:57;;;;;;;18.63;6.40;;;;;;;21.57;100.00;100572.03;5253247;28;20082;-73
2023/10/13 08:59:38;;;;;;;16.58;6.63;;;;;;;21.62;100.00;100589.34;5253364;28;20035;-73
2023/10/13 09:02:21;;;;;;;16.20;5.95;;;;;;;21.57;100.00;100581.06;5250543;28;20181;-72
2023/10/13 09:05:09;;;;;;;16.15;5.88;;;;;;;21.62;100.00;100585.78;5251107;28;20386;-72
2023/10/13 09:07:47;;;;;;;23.50;5.95;;;;;;;21.62;100.00;100575.69;5251693;28;20103;-73
2023/10/13 09:10:44;;;;;;;22.13;6.82;;;;;;;21.59;100.00;100572.66;5254661;28;20273;-72
2023/10/13 09:13:20;;;;;;;27.35;6.95;;;;;;;21.66;100.00;100576.03;5254496;28;20030;-72
2023/10/13 09:15:59;;;;;;;24.10;6.22;;;;;;;21.77;100.00;100572.41;5254137;28;20017;-72
2023/10/13 09:18:47;;;;;;;18.52;6.65;;;;;;;21.94;100.00;100559.59;5250839;28;20036;-73
2023/10/13 09:21:48;;;;;;;15.68;6.45;;;;;;;22.04;100.00;100558.94;5254758;28;20601;-72
2023/10/13 09:24:29;;;;;;;17.83;6.88;;;;;;;22.00;100.00;100560.50;5245935;28;20096;-73
2023/10/13 09:27:03;;;;;;;16.90;6.53;;;;;;;22.03;100.00;100551.81;5254576;28;20497;-72
2023/10/13 09:29:38;;;;;;;26.17;6.93;;;;;;;22.10;100.00;100557.13;5252672;28;20041;-73
2023/10/13 09:32:11;;;;;;;20.75;6.93;;;;;;;22.02;100.00;100555.63;5250142;28;20032;-73
2023/10/13 09:34:44;;;;;;;26.58;7.22;;;;;;;22.17;100.00;100555.06;5251163;28;20044;-72
2023/10/13 09:37:20;;;;;;;21.10;6.82;;;;;;;22.15;100.00;100547.13;5257085;28;20115;-73
2023/10/13 09:39:52;;;;;;;20.15;6.80;;;;;;;22.14;100.00;100548.19;5252299;28;20024;-73
2023/10/13 09:42:26;;;;;;;21.95;6.93;;;;;;;22.16;100.00;100542.47;5255510;28;20056;-73
2023/10/13 09:44:59;;;;;;;20.80;6.15;;;;;;;22.06;100.00;100543.13;5250473;28;20058;-72
2023/10/13 09:47:32;;;;;;;25.05;7.32;;;;;;;22.03;100.00;100529.94;5251713;28;20040;-72
2023/10/13 09:50:05;;;;;;;25.88;6.97;;;;;;;21.85;100.00;100524.75;5254975;28;20986;-73
2023/10/13 09:52:37;;;;;;;25.45;6.65;;;;;;;21.89;100.00;100534.13;5251956;28;20427;-72
2023/10/13 09:55:17;;;;;;;19.70;6.60;;;;;;;21.95;100.00;100527.66;5256970;28;20031;-73
2023/10/13 09:57:58;;;;;;;27.25;7.63;;;;;;;21.97;100.00;100525.50;5246550;28;20029;-73
2023/10/13 10:03:15;;;;;;;18.02;6.38;;;;;;;21.95;100.00;100522.19;5256005;28;20085;-72
2023/10/13 10:06:13;;;;;;;21.10;7.03;;;;;;;22.07;100.00;100517.44;5249319;28;20100;-72
2023/10/13 10:08:50;;;;;;;23.35;7.22;;;;;;;22.15;100.00;100533.47;5251894;28;20027;-72
2023/10/13 10:11:40;;;;;;;18.80;6.88;;;;;;;22.03;100.00;100532.69;5252364;28;20112;-72
2023/10/13 10:14:19;;;;;;;13.25;5.43;;;;;;;21.98;100.00;100533.44;5254705;28;20115;-72
2023/10/13 10:17:07;;;;;;;17.35;7.75;;;;;;;21.94;100.00;100529.56;5251203;28;20498;-72
2023/10/13 10:19:54;;;;;;;19.48;6.53;;;;;;;22.02;100.00;100533.75;5251104;28;20042;-72
2023/10/13 10:22:33;;;;;;;21.52;6.40;;;;;;;22.10;100.00;100530.63;5248447;28;20118;-72
2023/10/13 10:25:21;;;;;;;27.50;7.35;;;;;;;22.10;100.00;100527.06;5248635;28;20036;-72
2023/10/13 10:27:58;;;;;;;19.13;6.45;;;;;;;22.06;100.00;100528.63;5252457;28;20043;-72
2023/10/13 10:30:29;;;;;;;22.13;6.55;;;;;;;22.04;100.00;100514.38;5250443;28;20116;-72
2023/10/13 10:33:01;;;;;;;23.80;7.00;;;;;;;22.19;100.00;100517.41;5250137;28;20074;-72
2023/10/13 10:35:32;;;;;;;13.07;6.05;;;;;;;22.21;100.00;100524.25;5255232;28;20047;-71
2023/10/13 10:38:11;;;;;;;20.55;6.50;;;;;;;22.25;100.00;100513.66;5251775;28;20251;-72
2023/10/13 10:41:04;;;;;;;21.92;5.97;;;;;;;22.31;100.00;100518.13;5254260;28;20020;-72
2023/10/13 10:43:42;;;;;;;21.95;6.47;;;;;;;22.32;100.00;100522.50;5249418;28;20041;-72
2023/10/13 10:46:16;;;;;;;25.25;6.47;;;;;;;22.46;100.00;100506.56;5251467;28;20111;-72
2023/10/13 10:48:56;;;;;;;26.17;6.75;;;;;;;22.54;100.00;100508.00;5249617;28;20025;-72
2023/10/13 10:51:31;;;;;;;23.45;6.75;;;;;;;22.66;100.00;100504.09;5242072;28;20039;-72
2023/10/13 10:54:11;;;;;;;24.30;7.65;;;;;;;22.85;100.00;100501.88;5250851;28;20040;-72
2023/10/13 10:56:42;;;;;;;21.50;6.93;;;;;;;22.95;100.00;100512.94;5247038;28;20025;-72
2023/10/13 10:59:19;;;;;;;25.80;7.03;;;;;;;23.07;100.00;100484.63;5250913;28;20366;-72
2023/10/13 11:01:51;;;;;;;20.60;5.40;;;;;;;23.11;100.00;100493.97;5252385;28;20394;-72
2023/10/13 11:06:55;;;;;;;19.38;6.97;;;;;;;23.34;100.00;100496.38;5250521;28;20029;-72
2023/10/13 11:09:32;;;;;;;21.55;7.18;;;;;;;23.41;100.00;100480.56;5250122;28;20021;-72
2023/10/13 11:12:04;;;;;;;34.22;9.00;;;;;;;23.20;100.00;100476.84;5246144;28;20062;-72
2023/10/13 11:14:35;;;;;;;28.02;7.53;;;;;;;23.27;100.00;100473.88;5247144;28;20047;-72
2023/10/13 11:17:16;;;;;;;23.73;6.93;;;;;;;23.25;100.00;100471.41;5249792;28;20086;-72
2023/10/13 11:19:47;;;;;;;21.50;6.65;;;;;;;23.40;100.00;100458.94;5240262;28;20031;-72
2023/10/13 11:22:33;;;;;;;21.88;7.40;;;;;;;23.42;100.00;100465.81;5247488;28;20016;-73
2023/10/13 11:25:11;;;;;;;20.55;6.78;;;;;;;23.52;100.00;100460.41;5248864;28;20061;-72
2023/10/13 11:27:55;;;;;;;23.77;7.60;;;;;;;23.71;100.00;100468.25;5247389;28;20024;-72
2023/10/13 11:30:40;;;;;;;25.73;6.47;;;;;;;23.59;100.00;100448.41;5244403;28;20032;-72
2023/10/13 11:33:17;;;;;;;26.30;7.45;;;;;;;23.68;100.00;100447.69;5246116;28;20027;-72
2023/10/13 11:38:27;;;;;;;34.97;7.00;;;;;;;23.69;100.00;100443.84;5248448;28;20028;-72
2023/10/13 11:41:11;;;;;;;22.70;7.30;;;;;;;23.77;100.00;100437.09;5245031;28;20060;-72
2023/10/13 11:51:46;;;;;;;24.73;6.80;;;;;;;23.99;100.00;100432.28;5243907;28;20033;-72
2023/10/13 11:54:18;;;;;;;38.17;8.07;;;;;;;24.07;100.00;100439.19;5246903;28;20089;-72
2023/10/13 11:56:49;;;;;;;22.42;6.78;;;;;;;24.14;100.00;100411.53;5243965;28;20064;-73
2023/10/13 11:59:27;;;;;;;31.63;7.10;;;;;;;24.28;100.00;100423.66;5246537;28;20086;-72
2023/10/13 12:04:48;;;;;;;31.83;7.68;;;;;;;24.53;100.00;100417.50;5249244;28;20025;-72
2023/10/13 12:07:20;;;;;;;22.00;7.20;;;;;;;24.54;100.00;100406.25;5248877;28;20031;-72
2023/10/13 12:12:30;;;;;;;21.10;6.95;;;;;;;24.48;100.00;100426.53;5246501;28;20069;-72
2023/10/13 12:15:09;;;;;;;22.23;6.60;;;;;;;24.49;100.00;100425.41;5248190;28;20036;-72
2023/10/13 12:17:44;;;;;;;22.98;6.53;;;;;;;24.41;100.00;100414.16;5246684;28;20303;-72
2023/10/13 12:20:32;;;;;;;22.05;7.03;;;;;;;24.24;100.00;100408.84;5244630;28;20478;-72
2023/10/13 12:23:09;;;;;;;21.65;6.57;;;;;;;24.26;100.00;100414.91;5245926;28;20040;-72
2023/10/13 12:25:54;;;;;;;30.77;6.93;;;;;;;24.05;100.00;100416.72;5251153;28;20060;-72
2023/10/13 12:28:26;;;;;;;25.35;6.20;;;;;;;23.96;100.00;100416.38;5249243;28;20024;-72
2023/10/13 12:31:06;;;;;;;26.42;6.85;;;;;;;23.90;100.00;100414.72;5247219;28;20340;-72
2023/10/13 12:33:37;;;;;;;27.05;6.00;;;;;;;23.94;100.00;100410.34;5250037;28;20029;-72
2023/10/13 12:52:20;;;;;;;19.98;6.75;;;;;;;23.54;100.00;100413.59;5244816;28;20059;-72
2023/10/13 12:57:28;;;;;;;22.42;6.10;;;;;;;23.59;100.00;100407.34;5247115;28;20113;-72
2023/10/13 12:59:58;;;;;;;24.33;7.22;;;;;;;23.58;100.00;100409.25;5247202;28;20039;-72
2023/10/13 13:02:29;;;;;;;17.75;6.20;;;;;;;23.59;100.00;100394.47;5239731;28;20455;-72
2023/10/13 13:05:11;;;;;;;21.40;6.50;;;;;;;23.68;100.00;100392.91;5246555;28;20028;-72
2023/10/13 13:07:52;;;;;;;20.73;6.38;;;;;;;23.73;100.00;100382.00;5250636;28;20027;-72
2023/10/13 13:10:34;;;;;;;22.85;6.10;;;;;;;23.84;100.00;100395.75;5244064;28;20020;-72
2023/10/13 13:13:05;;;;;;;20.15;5.78;;;;;;;23.75;100.00;100395.44;5249958;28;20532;-72
2023/10/13 13:15:35;;;;;;;17.48;5.53;;;;;;;23.80;100.00;100398.22;5251237;28;20020;-72
2023/10/13 13:18:11;;;;;;;17.13;6.07;;;;;;;23.92;100.00;100396.09;5250365;28;20382;-71
2023/10/13 13:20:54;;;;;;;19.73;6.20;;;;;;;23.80;100.00;100394.63;5249152;28;20104;-72
2023/10/13 13:23:25;;;;;;;24.35;6.32;;;;;;;23.75;100.00;100385.31;5247994;28;20027;-72
2023/10/13 13:25:56;;;;;;;14.23;5.20;;;;;;;23.87;100.00;100376.06;5254475;28;20033;-72
2023/10/13 13:28:28;;;;;;;18.65;5.93;;;;;;;23.76;100.00;100370.53;5251930;28;20027;-73
2023/10/13 13:30:59;;;;;;;19.10;5.88;;;;;;;23.88;100.00;100373.06;5250778;28;20029;-72
2023/10/13 13:33:33;;;;;;;20.52;5.75;;;;;;;23.85;100.00;100381.81;5249687;28;20228;-72
2023/10/13 13:36:04;;;;;;;14.93;5.15;;;;;;;23.89;100.00;100382.09;5251988;28;20034;-72
2023/10/13 13:38:35;;;;;;;17.02;6.10;;;;;;;23.83;100.00;100370.28;5250369;28;20402;-72
2023/10/13 13:41:16;;;;;;;20.00;6.32;;;;;;;23.83;100.00;100381.25;5253717;28;20034;-72
2023/10/13 13:46:27;;;;;;;18.52;5.45;;;;;;;23.80;100.00;100372.72;5251577;28;20036;-72
2023/10/13 13:48:59;;;;;;;14.25;5.55;;;;;;;23.84;100.00;100363.72;5251646;28;20420;-72
2023/10/13 13:51:31;;;;;;;13.70;5.35;;;;;;;23.75;100.00;100368.88;5249667;28;20024;-72
2023/10/13 13:54:06;;;;;;;21.70;5.40;;;;;;;23.81;100.00;100358.78;5250698;28;20317;-72
2023/10/13 13:56:42;;;;;;;17.65;5.85;;;;;;;23.92;100.00;100357.72;5247862;28;20016;-72
2023/10/13 13:59:15;;;;;;;21.85;6.00;;;;;;;23.90;100.00;100362.66;5255228;28;20036;-72
2023/10/13 14:01:46;;;;;;;17.55;6.07;;;;;;;23.93;100.00;100356.63;5248606;28;20020;-72
2023/10/13 14:04:17;;;;;;;17.40;5.90;;;;;;;23.91;100.00;100345.13;5253619;28;20063;-72
2023/10/13 14:06:47;;;;;;;17.48;5.60;;;;;;;23.66;100.00;100354.03;5250510;28;20024;-72
2023/10/13 14:09:35;;;;;;;16.05;5.65;;;;;;;23.76;100.00;100343.16;5253829;28;20270;-72
2023/10/13 14:14:56;;;;;;;17.35;5.25;;;;;;;23.81;100.00;100355.22;5247844;28;20548;-72
2023/10/13 14:17:35;;;;;;;24.45;6.10;;;;;;;23.75;100.00;100354.38;5250376;28;20488;-72
2023/10/13 14:20:15;;;;;;;16.08;5.75;;;;;;;23.74;100.00;100360.91;5247294;28;20038;-72
2023/10/13 14:22:48;;;;;;;14.38;5.63;;;;;;;23.73;100.00;100362.00;5251268;28;20028;-72
2023/10/13 14:25:18;;;;;;;16.50;6.30;;;;;;;23.78;100.00;100362.03;5247309;28;20036;-72
2023/10/13 14:27:49;;;;;;;23.80;6.15;;;;;;;23.76;100.00;100359.56;5249771;28;20550;-72
2023/10/13 14:30:19;;;;;;;27.73;5.60;;;;;;;23.65;100.00;100359.78;5252511;28;20535;-72
2023/10/13 14:32:49;;;;;;;12.80;5.50;;;;;;;23.74;100.00;100353.53;5248317;28;20392;-72
2023/10/13 14:35:20;;;;;;;14.88;6.22;;;;;;;23.64;100.00;100352.63;5250766;28;20475;-72
2023/10/13 14:37:50;;;;;;;13.98;5.45;;;;;;;23.62;100.00;100354.81;5247417;28;20039;-72
2023/10/13 14:40:22;;;;;;;15.52;5.60;;;;;;;23.61;100.00;100350.41;5251711;28;20040;-72
2023/10/13 14:42:52;;;;;;;20.77;5.88;;;;;;;23.55;100.00;100343.28;5245270;28;20479;-72